createdAt,value
2023-12-30T00:02:22.121Z,0.50
2023-12-30T00:04:48.621Z,0.40
2023-12-30T00:07:15.367Z,0.60
2023-12-30T00:09:42.215Z,0.60
2023-12-30T00:12:09.110Z,0.50
2023-12-30T00:14:35.764Z,0.30
2023-12-30T00:17:02.329Z,0.50
2023-12-30T00:19:28.906Z,0.70
2023-12-30T00:21:55.454Z,0.40
2023-12-30T00:24:21.933Z,0.50
2023-12-30T00:26:48.489Z,0.50
2023-12-30T00:29:14.934Z,0.60
2023-12-30T00:31:41.480Z,0.50
2023-12-30T00:34:08.346Z,0.50
2023-12-30T00:36:34.978Z,0.50
2023-12-30T00:39:01.468Z,0.50
2023-12-30T00:41:28.382Z,0.40
2023-12-30T00:43:54.974Z,0.60
2023-12-30T00:46:23.190Z,0.60
2023-12-30T00:48:56.859Z,0.70
2023-12-30T00:51:24.984Z,0.60
2023-12-30T00:53:51.718Z,0.40
2023-12-30T00:56:18.419Z,0.60
2023-12-30T00:58:45.148Z,0.80
2023-12-30T01:01:11.973Z,0.40
2023-12-30T01:03:40.318Z,0.60
2023-12-30T01:06:07.909Z,0.40
2023-12-30T01:08:34.451Z,0.50
2023-12-30T01:11:01.114Z,0.30
2023-12-30T01:13:27.662Z,0.50
2023-12-30T01:15:54.289Z,0.50
2023-12-30T01:18:21.097Z,0.50
2023-12-30T01:20:47.893Z,0.30
2023-12-30T01:23:15.279Z,0.50
2023-12-30T01:28:10.284Z,0.60
2023-12-30T01:30:41.367Z,0.60
2023-12-30T01:33:08.978Z,0.80
2023-12-30T01:35:36.078Z,0.70
2023-12-30T01:38:04.964Z,0.60
2023-12-30T01:40:32.775Z,0.60
2023-12-30T01:43:03.759Z,0.40
2023-12-30T01:45:30.484Z,0.80
2023-12-30T01:47:57.119Z,0.60
2023-12-30T01:50:23.676Z,0.60
2023-12-30T01:52:51.625Z,0.70
2023-12-30T01:55:20.131Z,0.60
2023-12-30T01:57:46.731Z,0.50
2023-12-30T02:00:21.803Z,0.50
2023-12-30T02:02:50.206Z,0.60
2023-12-30T02:05:17.724Z,0.40
2023-12-30T02:10:15.104Z,0.30
2023-12-30T02:12:41.869Z,0.60
2023-12-30T02:15:16.307Z,0.70
2023-12-30T02:17:43.069Z,0.50
2023-12-30T02:20:11.097Z,0.50
2023-12-30T02:22:46.882Z,0.70
2023-12-30T02:25:13.784Z,0.50
2023-12-30T02:27:42.445Z,0.50
2023-12-30T02:30:09.983Z,0.50
2023-12-30T02:32:36.672Z,0.50
2023-12-30T02:35:04.152Z,0.50
2023-12-30T02:39:57.512Z,0.50
2023-12-30T02:42:24.014Z,0.50
2023-12-30T02:44:50.991Z,0.50
2023-12-30T02:47:17.526Z,0.40
2023-12-30T02:49:45.391Z,0.60
2023-12-30T02:52:12.647Z,0.50
2023-12-30T02:54:39.279Z,0.40
2023-12-30T02:57:07.221Z,0.30
2023-12-30T02:59:34.262Z,0.40
2023-12-30T03:02:00.816Z,0.60
2023-12-30T03:04:27.485Z,0.60
2023-12-30T03:06:54.150Z,0.30
2023-12-30T03:09:20.785Z,0.70
2023-12-30T03:11:47.239Z,0.60
2023-12-30T03:14:13.745Z,0.60
2023-12-30T03:16:40.262Z,0.40
2023-12-30T03:19:06.899Z,0.30
2023-12-30T03:21:33.475Z,0.70
2023-12-30T03:23:59.996Z,0.50
2023-12-30T03:26:26.471Z,0.60
2023-12-30T03:28:53.217Z,0.60
2023-12-30T03:31:29.170Z,0.40
2023-12-30T03:33:57.309Z,0.50
2023-12-30T03:36:24.701Z,0.50
2023-12-30T03:38:53.628Z,0.50
2023-12-30T03:41:20.429Z,0.80
2023-12-30T03:43:47.037Z,0.50
2023-12-30T03:46:13.767Z,0.60
2023-12-30T03:48:40.361Z,0.70
2023-12-30T03:51:07.166Z,0.80
2023-12-30T03:53:34.170Z,0.50
2023-12-30T03:56:01.626Z,0.70
2023-12-30T03:58:28.679Z,0.70
2023-12-30T04:00:55.470Z,0.60
2023-12-30T04:03:22.212Z,0.40
2023-12-30T04:05:48.853Z,0.70
2023-12-30T04:08:15.370Z,0.70
2023-12-30T04:10:41.931Z,0.70
2023-12-30T04:13:10.628Z,0.60
2023-12-30T04:15:37.975Z,0.40
2023-12-30T04:18:05.031Z,0.40
2023-12-30T04:20:31.645Z,0.80
2023-12-30T04:22:58.261Z,0.40
2023-12-30T04:25:24.890Z,0.60
2023-12-30T04:27:51.481Z,0.60
2023-12-30T04:30:18.151Z,0.70
2023-12-30T04:32:45.057Z,0.70
2023-12-30T04:35:11.739Z,0.80
2023-12-30T04:37:38.270Z,0.60
2023-12-30T04:40:05.827Z,0.70
2023-12-30T04:42:32.320Z,0.40
2023-12-30T04:44:58.772Z,0.60
2023-12-30T04:47:25.337Z,0.60
2023-12-30T04:49:51.920Z,0.60
2023-12-30T04:52:18.447Z,0.40
2023-12-30T04:54:44.965Z,0.40
2023-12-30T04:57:11.509Z,0.50
2023-12-30T04:59:38.143Z,0.60
2023-12-30T05:02:05.003Z,0.50
2023-12-30T05:04:31.641Z,0.40
2023-12-30T05:06:58.272Z,0.70
2023-12-30T05:09:24.762Z,0.40
2023-12-30T05:11:51.819Z,0.50
2023-12-30T05:14:21.025Z,0.50
2023-12-30T05:16:47.686Z,0.40
2023-12-30T05:19:14.710Z,0.70
2023-12-30T05:21:42.912Z,0.50
2023-12-30T05:24:10.359Z,0.60
2023-12-30T05:26:37.042Z,0.70
2023-12-30T05:29:03.581Z,0.30
2023-12-30T05:31:30.153Z,0.30
2023-12-30T05:33:56.837Z,0.30
2023-12-30T05:36:23.456Z,0.30
2023-12-30T05:38:49.998Z,0.40
2023-12-30T05:41:16.661Z,0.40
2023-12-30T05:43:43.235Z,0.80
2023-12-30T05:46:16.898Z,0.30
2023-12-30T05:48:44.447Z,0.60
2023-12-30T05:51:11.928Z,0.40
2023-12-30T05:56:06.010Z,0.30
2023-12-30T05:58:33.140Z,0.40
2023-12-30T06:00:59.888Z,0.20
2023-12-30T06:03:26.466Z,0.30
2023-12-30T06:05:53.173Z,0.40
2023-12-30T06:08:20.892Z,0.20
2023-12-30T06:10:50.828Z,0.20
2023-12-30T06:13:17.459Z,0.30
2023-12-30T06:15:50.057Z,0.30
2023-12-30T06:18:16.639Z,0.30
2023-12-30T06:20:47.529Z,0.30
2023-12-30T06:23:14.883Z,0.30
2023-12-30T06:28:08.347Z,0.30
2023-12-30T06:30:35.411Z,0.20
2023-12-30T06:33:08.319Z,0.40
2023-12-30T06:35:35.863Z,0.40
2023-12-30T06:38:03.085Z,0.30
2023-12-30T06:40:29.681Z,0.30
2023-12-30T06:42:56.325Z,0.30
2023-12-30T06:45:22.988Z,0.30
2023-12-30T06:47:49.506Z,0.20
2023-12-30T06:50:18.951Z,0.30
2023-12-30T06:52:48.230Z,0.30
2023-12-30T06:55:22.970Z,0.40
2023-12-30T06:57:53.538Z,0.50
2023-12-30T07:00:21.391Z,1.10
2023-12-30T07:02:48.318Z,0.60
2023-12-30T07:05:15.160Z,0.30
2023-12-30T07:07:41.709Z,0.50
2023-12-30T07:10:08.867Z,0.50
2023-12-30T07:12:35.685Z,0.40
2023-12-30T07:15:02.239Z,0.50
2023-12-30T07:17:29.374Z,0.40
2023-12-30T07:19:56.185Z,0.50
2023-12-30T07:22:23.460Z,0.40
2023-12-30T07:24:50.066Z,0.50
2023-12-30T07:27:16.613Z,0.40
2023-12-30T07:29:43.279Z,0.30
2023-12-30T07:32:09.961Z,0.30
2023-12-30T07:34:36.653Z,0.40
2023-12-30T07:37:03.987Z,0.20
2023-12-30T07:39:30.591Z,0.20
2023-12-30T07:41:57.265Z,0.20
2023-12-30T07:44:23.751Z,0.10
2023-12-30T07:46:50.183Z,0.20
2023-12-30T07:49:18.532Z,0.30
2023-12-30T07:51:45.564Z,0.10
2023-12-30T07:54:14.093Z,1.10
2023-12-30T07:56:40.619Z,0.40
2023-12-30T07:59:07.129Z,0.30
2023-12-30T08:01:33.725Z,0.30
2023-12-30T08:04:00.425Z,0.30
2023-12-30T08:06:27.110Z,0.20
2023-12-30T08:08:54.384Z,0.20
2023-12-30T08:13:47.531Z,0.10
2023-12-30T08:16:14.346Z,0.20
2023-12-30T08:18:41.042Z,0.30
2023-12-30T08:21:07.593Z,0.20
2023-12-30T08:23:34.111Z,0.30
2023-12-30T08:26:00.726Z,0.30
2023-12-30T08:28:27.261Z,0.20
2023-12-30T08:30:56.028Z,0.40
2023-12-30T08:33:22.858Z,0.40
2023-12-30T08:35:50.517Z,0.70
2023-12-30T08:38:20.028Z,0.30
2023-12-30T08:40:46.593Z,0.30
2023-12-30T08:43:14.872Z,0.60
2023-12-30T08:45:41.701Z,0.20
2023-12-30T08:48:08.321Z,0.40
2023-12-30T08:50:34.923Z,0.30
2023-12-30T08:53:01.760Z,0.40
2023-12-30T08:55:28.468Z,0.40
2023-12-30T08:57:55.126Z,0.30
2023-12-30T09:00:21.829Z,0.40
2023-12-30T09:02:48.999Z,0.30
2023-12-30T09:05:19.735Z,0.20
2023-12-30T09:07:49.518Z,0.30
2023-12-30T09:10:20.390Z,0.60
2023-12-30T09:12:47.234Z,0.40
2023-12-30T09:15:13.759Z,0.20
2023-12-30T09:17:40.465Z,0.50
2023-12-30T09:20:08.128Z,0.30
2023-12-30T09:22:34.725Z,0.40
2023-12-30T09:25:01.516Z,0.20
2023-12-30T09:27:28.400Z,0.60
2023-12-30T09:29:54.936Z,0.40
2023-12-30T09:32:22.102Z,0.30
2023-12-30T09:37:16.361Z,0.40
2023-12-30T09:39:43.779Z,0.40
2023-12-30T09:44:37.741Z,0.20
2023-12-30T09:47:08.739Z,0.40
2023-12-30T09:49:37.064Z,0.40
2023-12-30T09:52:07.866Z,0.40
2023-12-30T09:54:45.124Z,0.60
2023-12-30T09:57:15.761Z,0.50
2023-12-30T09:59:45.229Z,0.30
2023-12-30T10:02:13.385Z,0.40
2023-12-30T10:04:40.025Z,0.40
2023-12-30T10:07:08.593Z,0.70
2023-12-30T10:09:35.980Z,0.50
2023-12-30T10:12:03.376Z,0.60
2023-12-30T10:14:30.139Z,0.60
2023-12-30T10:16:56.641Z,0.50
2023-12-30T10:19:23.430Z,0.40
2023-12-30T10:21:50.304Z,0.50
2023-12-30T10:24:17.475Z,0.60
2023-12-30T10:26:44.585Z,0.60
2023-12-30T10:29:12.003Z,0.30
2023-12-30T10:31:39.164Z,0.40
2023-12-30T10:34:07.042Z,0.50
2023-12-30T10:36:34.540Z,0.60
2023-12-30T10:39:04.564Z,0.60
2023-12-30T10:41:31.360Z,1.50
2023-12-30T10:43:58.033Z,1.00
2023-12-30T10:46:27.555Z,0.80
2023-12-30T10:48:57.126Z,0.70
2023-12-30T10:51:29.647Z,0.70
2023-12-30T10:54:06.599Z,0.80
2023-12-30T10:56:41.483Z,0.50
2023-12-30T10:59:08.952Z,1.00
2023-12-30T11:01:37.654Z,0.70
2023-12-30T11:04:12.584Z,0.40
2023-12-30T11:06:56.264Z,0.60
2023-12-30T11:09:28.762Z,0.70
2023-12-30T11:12:00.478Z,0.70
2023-12-30T11:14:27.395Z,0.80
2023-12-30T11:16:55.819Z,0.60
2023-12-30T11:19:33.481Z,0.40
2023-12-30T11:22:02.223Z,0.70
2023-12-30T11:24:29.099Z,0.60
2023-12-30T11:29:29.084Z,0.70
2023-12-30T11:31:58.209Z,0.70
2023-12-30T11:34:28.077Z,0.90
2023-12-30T11:36:55.250Z,0.70
2023-12-30T11:39:28.387Z,0.70
2023-12-30T11:41:55.317Z,0.90
2023-12-30T11:44:23.293Z,0.40
2023-12-30T11:46:50.564Z,0.60
2023-12-30T11:49:25.204Z,0.40
2023-12-30T11:51:59.480Z,0.50
2023-12-30T11:54:25.953Z,0.80
2023-12-30T11:56:52.501Z,0.80
2023-12-30T11:59:19.409Z,0.60
2023-12-30T12:04:15.293Z,0.60
2023-12-30T12:06:42.046Z,0.50
2023-12-30T12:09:08.785Z,1.10
2023-12-30T12:14:03.037Z,0.70
2023-12-30T12:16:33.198Z,0.50
2023-12-30T12:19:04.155Z,0.60
2023-12-30T12:21:31.102Z,0.40
2023-12-30T12:26:25.950Z,1.50
2023-12-30T12:28:55.000Z,1.60
2023-12-30T12:31:22.008Z,1.60
2023-12-30T12:33:48.584Z,1.10
2023-12-30T12:38:42.488Z,1.30
2023-12-30T12:41:09.061Z,1.50
2023-12-30T12:46:04.261Z,0.80
2023-12-30T12:48:31.486Z,0.90
2023-12-30T12:50:58.175Z,0.50
2023-12-30T12:53:24.893Z,1.20
2023-12-30T12:55:51.738Z,1.20
2023-12-30T12:58:18.539Z,0.70
2023-12-30T13:03:12.374Z,0.80
2023-12-30T13:05:39.395Z,0.80
2023-12-30T13:08:08.973Z,0.70
2023-12-30T13:10:43.025Z,1.00
2023-12-30T13:13:10.047Z,0.60
2023-12-30T13:15:36.790Z,0.60
2023-12-30T13:18:07.039Z,1.20
2023-12-30T13:20:33.630Z,0.70
2023-12-30T13:25:31.193Z,0.80
2023-12-30T13:27:58.275Z,0.70
2023-12-30T13:30:24.908Z,0.80
2023-12-30T13:35:35.441Z,0.70
2023-12-30T13:38:07.686Z,0.60
2023-12-30T13:40:34.841Z,0.60
2023-12-30T13:43:09.173Z,0.60
2023-12-30T13:45:48.080Z,0.80
2023-12-30T13:48:16.062Z,0.60
2023-12-30T13:50:53.622Z,0.30
2023-12-30T13:53:24.461Z,0.40
2023-12-30T13:55:53.359Z,0.60
2023-12-30T13:58:20.249Z,0.50
2023-12-30T14:00:48.868Z,0.50
2023-12-30T14:03:16.795Z,0.60
2023-12-30T14:05:47.234Z,0.30
2023-12-30T14:08:32.938Z,0.40
2023-12-30T14:11:06.821Z,0.20
2023-12-30T14:13:33.415Z,0.30
2023-12-30T14:16:00.370Z,0.30
2023-12-30T14:18:27.091Z,0.30
2023-12-30T14:20:53.721Z,0.30
2023-12-30T14:23:20.237Z,0.60
2023-12-30T14:25:46.898Z,0.20
2023-12-30T14:28:13.698Z,0.60
2023-12-30T14:30:40.707Z,0.40
2023-12-30T14:33:07.658Z,0.50
2023-12-30T14:38:02.738Z,0.90
2023-12-30T14:40:29.931Z,0.50
2023-12-30T14:42:56.942Z,0.20
2023-12-30T14:45:24.194Z,0.10
2023-12-30T14:50:18.030Z,0.30
2023-12-30T14:52:44.727Z,0.20
2023-12-30T14:55:12.741Z,0.30
2023-12-30T14:57:41.648Z,0.40
2023-12-30T15:00:15.159Z,0.30
2023-12-30T15:02:43.866Z,0.20
2023-12-30T15:05:14.307Z,0.40
2023-12-30T15:07:48.222Z,0.20
2023-12-30T15:10:16.686Z,0.30
2023-12-30T15:12:47.206Z,0.30
2023-12-30T15:15:14.624Z,0.30
2023-12-30T15:17:41.273Z,0.40
2023-12-30T15:20:09.109Z,0.40
2023-12-30T15:22:38.118Z,0.20
2023-12-30T15:25:06.285Z,0.40
2023-12-30T15:27:33.672Z,0.20
2023-12-30T15:30:00.423Z,0.20
2023-12-30T15:32:27.466Z,0.10
2023-12-30T15:34:54.557Z,0.30
2023-12-30T15:37:22.074Z,0.40
2023-12-30T15:39:48.702Z,0.50
2023-12-30T15:42:15.291Z,0.50
2023-12-30T15:44:41.830Z,0.60
2023-12-30T15:47:10.986Z,0.30
2023-12-30T15:49:39.188Z,0.40
2023-12-30T15:52:07.777Z,0.60
2023-12-30T15:54:34.485Z,0.30
2023-12-30T15:57:00.978Z,0.30
2023-12-30T15:59:28.862Z,0.30
2023-12-30T16:01:55.366Z,0.40
2023-12-30T16:04:22.051Z,0.30
2023-12-30T16:06:49.140Z,0.40
2023-12-30T16:09:15.694Z,0.70
2023-12-30T16:11:42.288Z,0.70
2023-12-30T16:14:11.189Z,0.70
2023-12-30T16:16:45.783Z,0.70
2023-12-30T16:19:15.708Z,0.60
2023-12-30T16:21:42.744Z,0.50
2023-12-30T16:24:09.282Z,0.60
2023-12-30T16:26:36.539Z,0.40
2023-12-30T16:29:04.177Z,0.50
2023-12-30T16:31:32.034Z,0.30
2023-12-30T16:33:59.073Z,0.30
2023-12-30T16:36:26.458Z,0.70
2023-12-30T16:38:55.468Z,0.50
2023-12-30T16:41:22.284Z,0.30
2023-12-30T16:43:48.814Z,0.50
2023-12-30T16:46:15.808Z,0.50
2023-12-30T16:48:42.392Z,1.00
2023-12-30T16:51:09.037Z,1.20
2023-12-30T16:53:35.521Z,0.60
2023-12-30T16:56:02.185Z,0.70
2023-12-30T16:58:32.050Z,0.90
2023-12-30T17:01:02.203Z,0.60
2023-12-30T17:03:28.929Z,1.00
2023-12-30T17:05:55.754Z,0.60
2023-12-30T17:08:22.392Z,0.90
2023-12-30T17:10:48.983Z,1.20
2023-12-30T17:13:15.593Z,0.90
2023-12-30T17:15:42.238Z,1.00
2023-12-30T17:18:09.469Z,1.40
2023-12-30T17:20:37.878Z,2.20
2023-12-30T17:23:06.844Z,2.00
2023-12-30T17:25:33.440Z,2.20
2023-12-30T17:28:00.814Z,3.00
2023-12-30T17:30:28.873Z,3.70
2023-12-30T17:32:56.001Z,3.70
2023-12-30T17:35:24.609Z,4.20
2023-12-30T17:37:51.172Z,3.90
2023-12-30T17:40:19.380Z,3.50
2023-12-30T17:42:47.300Z,3.50
2023-12-30T17:45:14.223Z,2.60
2023-12-30T17:47:40.823Z,2.60
2023-12-30T17:50:11.131Z,3.90
2023-12-30T17:52:38.178Z,5.60
2023-12-30T17:55:06.007Z,5.20
2023-12-30T17:57:32.641Z,5.10
2023-12-30T17:59:59.196Z,3.90
2023-12-30T18:02:25.767Z,4.20
2023-12-30T18:04:52.582Z,2.50
2023-12-30T18:07:19.334Z,2.20
2023-12-30T18:09:48.114Z,3.00
2023-12-30T18:12:15.081Z,2.10
2023-12-30T18:14:41.568Z,1.90
2023-12-30T18:17:08.769Z,2.20
2023-12-30T18:19:35.833Z,3.90
2023-12-30T18:22:02.797Z,2.30
2023-12-30T18:24:29.916Z,1.30
2023-12-30T18:26:56.845Z,1.90
2023-12-30T18:29:23.794Z,1.90
2023-12-30T18:31:50.544Z,1.80
2023-12-30T18:34:17.376Z,1.60
2023-12-30T18:36:44.660Z,1.70
2023-12-30T18:39:11.373Z,1.40
2023-12-30T18:41:37.844Z,1.60
2023-12-30T18:44:04.652Z,1.20
2023-12-30T18:46:31.600Z,1.10
2023-12-30T18:48:58.117Z,1.50
2023-12-30T18:51:24.621Z,1.40
2023-12-30T18:53:52.253Z,1.00
2023-12-30T18:56:18.860Z,1.00
2023-12-30T18:58:46.383Z,0.70
2023-12-30T19:01:14.029Z,1.50
2023-12-30T19:03:40.615Z,1.70
2023-12-30T19:06:07.396Z,1.60
2023-12-30T19:08:35.892Z,1.50
2023-12-30T19:11:02.634Z,1.30
2023-12-30T19:13:29.200Z,2.00
2023-12-30T19:15:56.093Z,0.90
2023-12-30T19:18:22.937Z,1.20
2023-12-30T19:20:49.687Z,1.10
2023-12-30T19:23:16.339Z,1.60
2023-12-30T19:25:42.915Z,1.50
2023-12-30T19:28:10.354Z,1.30
2023-12-30T19:33:09.320Z,1.70
2023-12-30T19:35:37.878Z,1.60
2023-12-30T19:38:04.763Z,1.60
2023-12-30T19:40:31.299Z,1.40
2023-12-30T19:42:58.124Z,2.10
2023-12-30T19:45:24.605Z,1.60
2023-12-30T19:47:51.271Z,1.10
2023-12-30T19:50:18.394Z,1.70
2023-12-30T19:52:44.936Z,1.50
2023-12-30T19:55:11.620Z,1.60
2023-12-30T19:57:38.764Z,1.50
2023-12-30T20:00:06.591Z,1.30
2023-12-30T20:02:33.156Z,1.30
2023-12-30T20:05:02.594Z,1.50
2023-12-30T20:07:29.856Z,1.60
2023-12-30T20:09:56.420Z,1.20
2023-12-30T20:12:22.936Z,1.80
2023-12-30T20:14:49.518Z,1.90
2023-12-30T20:17:17.536Z,2.20
2023-12-30T20:19:45.127Z,1.80
2023-12-30T20:22:12.168Z,2.10
2023-12-30T20:24:38.698Z,2.10
2023-12-30T20:27:05.803Z,1.60
2023-12-30T20:29:33.107Z,1.70
2023-12-30T20:34:26.641Z,1.10
2023-12-30T20:36:53.186Z,1.90
2023-12-30T20:39:19.873Z,2.00
2023-12-30T20:41:46.460Z,2.70
2023-12-30T20:44:12.960Z,1.90
2023-12-30T20:46:43.031Z,1.90
2023-12-30T20:49:09.813Z,2.20
2023-12-30T20:51:36.413Z,1.30
2023-12-30T20:54:02.899Z,2.20
2023-12-30T20:56:29.445Z,2.40
2023-12-30T20:58:55.971Z,2.40
2023-12-30T21:01:22.655Z,1.90
2023-12-30T21:03:50.293Z,1.40
2023-12-30T21:06:16.861Z,1.60
2023-12-30T21:08:44.033Z,1.70
2023-12-30T21:11:10.591Z,1.60
2023-12-30T21:13:37.155Z,2.00
2023-12-30T21:16:03.984Z,1.80
2023-12-30T21:18:30.850Z,1.60
2023-12-30T21:20:57.415Z,1.60
2023-12-30T21:23:23.882Z,1.80
2023-12-30T21:25:51.865Z,1.70
2023-12-30T21:28:20.292Z,1.80
2023-12-30T21:30:48.426Z,1.40
2023-12-30T21:33:15.542Z,1.70
2023-12-30T21:35:43.194Z,2.00
2023-12-30T21:38:09.699Z,2.50
2023-12-30T21:40:36.398Z,2.20
2023-12-30T21:43:03.130Z,2.70
2023-12-30T21:45:29.824Z,2.30
2023-12-30T21:47:56.421Z,1.40
2023-12-30T21:50:23.113Z,2.40
2023-12-30T21:52:50.657Z,2.60
2023-12-30T21:57:44.813Z,1.90
2023-12-30T22:00:12.436Z,1.40
2023-12-30T22:02:40.050Z,1.80
2023-12-30T22:07:33.242Z,2.10
2023-12-30T22:10:00.296Z,1.90
2023-12-30T22:12:33.446Z,1.20
2023-12-30T22:15:00.067Z,2.00
2023-12-30T22:17:26.665Z,1.50
2023-12-30T22:19:53.534Z,1.40
2023-12-30T22:22:20.136Z,2.00
2023-12-30T22:24:48.129Z,1.80
2023-12-30T22:27:14.711Z,1.40
2023-12-30T22:29:42.325Z,1.90
2023-12-30T22:32:09.208Z,1.70
2023-12-30T22:34:35.733Z,2.30
2023-12-30T22:37:02.326Z,2.60
2023-12-30T22:39:29.161Z,1.60
2023-12-30T22:41:55.854Z,1.90
2023-12-30T22:44:23.162Z,1.70
2023-12-30T22:46:49.709Z,1.70
2023-12-30T22:49:16.340Z,2.00
2023-12-30T22:51:50.111Z,1.50
2023-12-30T22:54:17.859Z,1.90
2023-12-30T22:56:45.383Z,2.00
2023-12-30T22:59:17.061Z,2.30
2023-12-30T23:01:44.185Z,2.00
2023-12-30T23:04:11.487Z,2.10
2023-12-30T23:06:37.979Z,1.40
2023-12-30T23:09:04.522Z,2.50
2023-12-30T23:11:31.371Z,1.80
2023-12-30T23:13:58.071Z,2.50
2023-12-30T23:16:25.157Z,2.00
2023-12-30T23:18:52.221Z,2.40
2023-12-30T23:21:18.956Z,2.00
2023-12-30T23:23:45.634Z,2.70
2023-12-30T23:26:12.371Z,2.40
2023-12-30T23:28:39.070Z,2.20
2023-12-30T23:31:07.115Z,2.20
2023-12-30T23:33:33.913Z,2.20
2023-12-30T23:36:00.805Z,2.00
2023-12-30T23:38:27.308Z,2.30
2023-12-30T23:40:53.848Z,2.50
2023-12-30T23:43:20.506Z,2.20
2023-12-30T23:45:47.156Z,1.60
2023-12-30T23:48:14.371Z,2.40
2023-12-30T23:50:41.156Z,1.60
2023-12-30T23:53:08.473Z,2.60
2023-12-30T23:55:35.379Z,3.00
2023-12-30T23:58:02.004Z,2.30
